Athens Township, Pennsylvania
Current Conditions -  °F | °C
As of 7:33 AM on Monday 24 Nov 2014 (Local Time) from KBGM Reporting Station
Overcast Overcast  
Wind Chill: 57°   Ceiling: 1900
Heat Index: 57°   Visibility: 10mi
Dew Point: 54°   Wind: 20mph
Humidity: 89%   Direction: 190°S
Pressure: 29.52"   Gusts: 26mph
Location:  41.9771°N, 76.4144°W
Report Text: KBGM 241233Z 19017G23KT 10SM SCT015 BKN019 OVC026 14/12 A2952 RMK AO2 T01390122
Loading
Personal Weather Stations






























Interactive Weather Map New forecast layout! Learn more

10-Day Weather Forecast

Advertisements
Track Severe Weather on mobile